createdAt,value
2018-02-13T00:00:24.367Z,65.65
2018-02-13T00:01:26.817Z,65.66
2018-02-13T00:02:37.067Z,65.69
2018-02-13T00:03:39.755Z,65.75
2018-02-13T00:04:42.243Z,65.76
2018-02-13T00:05:44.771Z,65.80
2018-02-13T00:06:47.259Z,65.81
2018-02-13T00:07:49.727Z,65.84
2018-02-13T00:08:52.204Z,65.85
2018-02-13T00:09:54.716Z,65.87
2018-02-13T00:10:57.165Z,65.88
2018-02-13T00:11:59.598Z,65.92
2018-02-13T00:13:02.064Z,65.92
2018-02-13T00:14:04.518Z,65.93
2018-02-13T00:15:07.410Z,65.95
2018-02-13T00:16:09.870Z,65.98
2018-02-13T00:17:12.358Z,66.00
2018-02-13T00:18:14.884Z,66.02
2018-02-13T00:19:17.372Z,66.05
2018-02-13T00:20:19.870Z,66.04
2018-02-13T00:21:23.099Z,66.04
2018-02-13T00:22:25.632Z,66.08
2018-02-13T00:23:28.202Z,66.08
2018-02-13T00:24:30.753Z,66.12
2018-02-13T00:25:33.194Z,66.13
2018-02-13T00:26:35.729Z,66.17
2018-02-13T00:27:38.274Z,66.19
2018-02-13T00:28:40.732Z,66.20
2018-02-13T00:29:43.256Z,66.20
2018-02-13T00:30:45.795Z,66.21
2018-02-13T00:31:48.274Z,66.24
2018-02-13T00:32:50.719Z,66.27
2018-02-13T00:33:53.193Z,66.31
2018-02-13T00:34:55.688Z,66.32
2018-02-13T00:35:58.157Z,66.35
2018-02-13T00:37:00.671Z,66.36
2018-02-13T00:38:03.242Z,66.36
2018-02-13T00:39:05.751Z,66.39
2018-02-13T00:40:08.329Z,66.41
2018-02-13T00:41:10.843Z,66.43
2018-02-13T00:42:13.360Z,66.48
2018-02-13T00:43:15.859Z,66.50
2018-02-13T00:44:18.356Z,66.50
2018-02-13T00:45:20.847Z,66.52
2018-02-13T00:46:23.345Z,66.55
2018-02-13T00:47:25.820Z,66.55
2018-02-13T00:48:28.342Z,66.56
2018-02-13T00:49:30.815Z,66.56
2018-02-13T00:50:33.341Z,66.55
2018-02-13T00:51:35.885Z,66.55
2018-02-13T00:52:38.475Z,66.54
2018-02-13T00:53:41.007Z,66.54
2018-02-13T00:54:43.476Z,66.53
2018-02-13T00:55:45.959Z,66.52
2018-02-13T00:56:48.441Z,66.52
2018-02-13T00:57:50.907Z,66.54
2018-02-13T00:58:53.459Z,66.57
2018-02-13T00:59:55.898Z,66.59
2018-02-13T01:00:58.404Z,66.61
2018-02-13T01:02:00.936Z,66.61
2018-02-13T01:03:03.555Z,66.61
2018-02-13T01:04:06.051Z,66.62
2018-02-13T01:05:08.659Z,66.64
2018-02-13T01:06:11.144Z,66.71
2018-02-13T01:07:13.673Z,66.68
2018-02-13T01:08:16.113Z,66.71
2018-02-13T01:09:18.675Z,66.74
2018-02-13T01:10:21.111Z,66.77
2018-02-13T01:11:23.661Z,66.79
2018-02-13T01:12:26.343Z,66.81
2018-02-13T01:13:28.873Z,66.86
2018-02-13T01:14:31.370Z,66.88
2018-02-13T01:15:33.839Z,66.91
2018-02-13T01:16:36.316Z,66.93
2018-02-13T01:17:38.850Z,66.97
2018-02-13T01:18:41.321Z,66.97
2018-02-13T01:19:43.784Z,66.98
2018-02-13T01:20:46.285Z,67.01
2018-02-13T01:21:48.761Z,67.03
2018-02-13T01:22:51.212Z,67.07
2018-02-13T01:23:53.681Z,67.14
2018-02-13T01:24:56.160Z,67.17
2018-02-13T01:25:58.724Z,67.17
2018-02-13T01:27:01.198Z,67.17
2018-02-13T01:28:03.634Z,67.18
2018-02-13T01:29:06.109Z,67.20
2018-02-13T01:30:08.618Z,67.15
2018-02-13T01:31:11.144Z,67.13
2018-02-13T01:32:13.633Z,67.12
2018-02-13T01:33:16.150Z,67.08
2018-02-13T01:34:18.634Z,67.04
2018-02-13T01:35:21.126Z,67.01
2018-02-13T01:36:23.601Z,66.99
2018-02-13T01:37:26.069Z,66.98
2018-02-13T01:38:28.575Z,66.99
2018-02-13T01:39:31.009Z,67.01
2018-02-13T01:40:33.515Z,67.01
2018-02-13T01:41:35.978Z,67.06
2018-02-13T01:42:38.489Z,67.07
2018-02-13T01:43:40.951Z,67.09
2018-02-13T01:44:43.439Z,67.12
2018-02-13T01:45:45.929Z,67.14
2018-02-13T01:46:48.388Z,67.16
2018-02-13T01:47:50.917Z,67.18
2018-02-13T01:48:53.368Z,67.18
2018-02-13T01:49:55.845Z,67.18
2018-02-13T01:50:58.401Z,67.17
2018-02-13T01:52:00.929Z,67.16
2018-02-13T01:53:03.461Z,67.16
2018-02-13T01:54:05.912Z,67.18
2018-02-13T01:55:08.520Z,67.20
2018-02-13T01:56:11.054Z,67.21
2018-02-13T01:57:13.511Z,67.21
2018-02-13T01:58:16.048Z,67.18
2018-02-13T01:59:18.540Z,67.16
2018-02-13T02:00:20.997Z,67.13
2018-02-13T02:01:23.579Z,67.11
2018-02-13T02:02:26.066Z,67.06
2018-02-13T02:03:28.547Z,67.05
2018-02-13T02:04:31.127Z,66.99
2018-02-13T02:05:33.637Z,66.98
2018-02-13T02:06:36.110Z,66.97
2018-02-13T02:07:38.735Z,66.97
2018-02-13T02:08:41.289Z,66.99
2018-02-13T02:09:43.749Z,67.00
2018-02-13T02:10:46.238Z,67.02
2018-02-13T02:11:48.727Z,67.06
2018-02-13T02:12:51.173Z,67.08
2018-02-13T02:13:53.657Z,67.12
2018-02-13T02:14:56.127Z,67.16
2018-02-13T02:15:58.668Z,67.19
2018-02-13T02:17:01.153Z,67.22
2018-02-13T02:18:03.677Z,67.26
2018-02-13T02:19:06.175Z,67.29
2018-02-13T02:20:08.827Z,67.32
2018-02-13T02:21:11.344Z,67.33
2018-02-13T02:22:13.891Z,67.37
2018-02-13T02:23:16.362Z,67.41
2018-02-13T02:24:19.018Z,67.45
2018-02-13T02:25:21.495Z,67.47
2018-02-13T02:26:23.963Z,67.48
2018-02-13T02:27:26.425Z,67.53
2018-02-13T02:28:28.948Z,67.57
2018-02-13T02:29:31.535Z,67.61
2018-02-13T02:30:34.005Z,67.65
2018-02-13T02:31:36.471Z,67.69
2018-02-13T02:32:40.140Z,67.73
2018-02-13T02:33:43.516Z,67.75
2018-02-13T02:34:46.002Z,67.79
2018-02-13T02:35:48.476Z,67.81
2018-02-13T02:36:50.994Z,67.83
2018-02-13T02:37:53.424Z,67.87
2018-02-13T02:38:56.029Z,67.91
2018-02-13T02:39:58.553Z,67.94
2018-02-13T02:41:01.040Z,67.96
2018-02-13T02:42:03.524Z,68.00
2018-02-13T02:43:06.073Z,68.01
2018-02-13T02:44:08.534Z,68.03
2018-02-13T02:45:11.082Z,68.06
2018-02-13T02:46:13.532Z,68.07
2018-02-13T02:47:19.023Z,68.11
2018-02-13T02:48:21.617Z,68.13
2018-02-13T02:49:24.080Z,68.13
2018-02-13T02:50:26.627Z,68.13
2018-02-13T02:51:29.104Z,68.17
2018-02-13T02:52:31.597Z,68.18
2018-02-13T02:53:34.062Z,68.18
2018-02-13T02:54:36.657Z,68.21
2018-02-13T02:55:39.117Z,68.21
2018-02-13T02:56:41.574Z,68.21
2018-02-13T02:57:44.238Z,68.24
2018-02-13T02:58:47.376Z,68.23
2018-02-13T02:59:49.818Z,68.29
2018-02-13T03:00:52.381Z,68.29
2018-02-13T03:01:54.892Z,68.29
2018-02-13T03:02:57.930Z,68.28
2018-02-13T03:04:00.422Z,68.30
2018-02-13T03:05:02.880Z,68.31
2018-02-13T03:06:05.455Z,68.30
2018-02-13T03:07:07.959Z,68.30
2018-02-13T03:08:10.507Z,68.32
2018-02-13T03:09:12.991Z,68.34
2018-02-13T03:10:15.496Z,68.33
2018-02-13T03:11:18.000Z,68.33
2018-02-13T03:12:20.643Z,68.34
2018-02-13T03:13:23.114Z,68.35
2018-02-13T03:14:25.624Z,68.37
2018-02-13T03:15:28.162Z,68.37
2018-02-13T03:16:30.735Z,68.39
2018-02-13T03:17:33.200Z,68.43
2018-02-13T03:18:35.834Z,68.44
2018-02-13T03:19:38.308Z,68.44
2018-02-13T03:20:40.867Z,68.44
2018-02-13T03:21:43.371Z,68.44
2018-02-13T03:22:45.828Z,68.43
2018-02-13T03:23:48.361Z,68.44
2018-02-13T03:24:50.958Z,68.45
2018-02-13T03:25:53.411Z,68.45
2018-02-13T03:26:56.120Z,68.47
2018-02-13T03:27:58.598Z,68.46
2018-02-13T03:29:01.158Z,68.47
2018-02-13T03:30:03.611Z,68.48
2018-02-13T03:31:06.168Z,68.49
2018-02-13T03:32:08.803Z,68.50
2018-02-13T03:33:11.295Z,68.51
2018-02-13T03:34:13.740Z,68.52
2018-02-13T03:35:16.264Z,68.53
2018-02-13T03:36:18.763Z,68.56
2018-02-13T03:37:21.335Z,68.58
2018-02-13T03:38:23.832Z,68.59
2018-02-13T03:39:26.287Z,68.62
2018-02-13T03:40:28.809Z,68.63
2018-02-13T03:41:31.307Z,68.66
2018-02-13T03:42:33.789Z,68.67
2018-02-13T03:43:36.261Z,68.68
2018-02-13T03:44:39.291Z,68.68
2018-02-13T03:45:41.796Z,68.70
2018-02-13T03:46:44.310Z,68.71
2018-02-13T03:47:46.782Z,68.72
2018-02-13T03:48:49.236Z,68.74
2018-02-13T03:49:52.509Z,68.76
2018-02-13T03:50:55.161Z,68.76
2018-02-13T03:51:57.648Z,68.77
2018-02-13T03:53:00.159Z,68.78
2018-02-13T03:54:02.663Z,68.81
2018-02-13T03:55:05.142Z,68.80
2018-02-13T03:56:07.659Z,68.81
2018-02-13T03:57:10.160Z,68.81
2018-02-13T03:58:12.672Z,68.82
2018-02-13T03:59:15.282Z,68.82
2018-02-13T04:00:17.769Z,68.81
2018-02-13T04:01:20.266Z,68.83
2018-02-13T04:02:22.769Z,68.85
2018-02-13T04:03:25.263Z,68.86
2018-02-13T04:04:27.718Z,68.86
2018-02-13T04:05:30.304Z,68.86
2018-02-13T04:06:32.780Z,68.87
2018-02-13T04:07:35.285Z,68.86
2018-02-13T04:08:37.811Z,68.86
2018-02-13T04:09:40.274Z,68.89
2018-02-13T04:10:42.735Z,68.90
2018-02-13T04:11:46.148Z,68.89
2018-02-13T04:12:48.625Z,68.90
2018-02-13T04:13:51.808Z,68.91
2018-02-13T04:14:54.248Z,68.90
2018-02-13T04:15:56.805Z,68.90
2018-02-13T04:16:59.345Z,68.92
2018-02-13T04:18:01.868Z,68.91
2018-02-13T04:19:04.379Z,68.94
2018-02-13T04:20:06.850Z,68.94
2018-02-13T04:21:09.340Z,68.95
2018-02-13T04:22:11.904Z,68.95
2018-02-13T04:23:14.468Z,68.95
2018-02-13T04:24:17.009Z,68.96
2018-02-13T04:25:20.527Z,68.99
2018-02-13T04:26:23.117Z,69.00
2018-02-13T04:27:25.591Z,69.00
2018-02-13T04:28:28.097Z,69.01
2018-02-13T04:29:30.716Z,69.04
2018-02-13T04:30:33.232Z,69.04
2018-02-13T04:31:35.837Z,69.04
2018-02-13T04:32:38.330Z,69.05
2018-02-13T04:33:40.814Z,69.05
2018-02-13T04:34:43.388Z,69.06
2018-02-13T04:35:45.952Z,69.06
2018-02-13T04:36:48.522Z,69.10
2018-02-13T04:37:51.068Z,69.13
2018-02-13T04:38:53.541Z,69.14
2018-02-13T04:39:56.068Z,69.13
2018-02-13T04:40:58.547Z,69.12
2018-02-13T04:42:00.999Z,69.14
2018-02-13T04:43:03.444Z,69.12
2018-02-13T04:44:05.940Z,69.13
2018-02-13T04:45:08.456Z,69.12
2018-02-13T04:46:11.006Z,69.12
2018-02-13T04:47:13.476Z,69.12
2018-02-13T04:48:16.039Z,69.12
2018-02-13T04:49:18.568Z,69.12
2018-02-13T04:50:21.080Z,69.12
2018-02-13T04:51:23.612Z,69.13
2018-02-13T04:52:26.094Z,69.14
2018-02-13T04:53:28.606Z,69.13
2018-02-13T04:54:31.124Z,69.13
2018-02-13T04:55:33.687Z,69.12
2018-02-13T04:56:36.285Z,69.12
2018-02-13T04:57:38.778Z,69.12
2018-02-13T04:58:41.299Z,69.13
2018-02-13T04:59:43.758Z,69.12
2018-02-13T05:00:46.315Z,69.11
2018-02-13T05:01:48.848Z,69.11
2018-02-13T05:02:51.320Z,69.10
2018-02-13T05:03:53.823Z,69.08
2018-02-13T05:04:56.334Z,69.08
2018-02-13T05:05:58.816Z,69.08
2018-02-13T05:07:01.307Z,69.07
2018-02-13T05:08:03.794Z,69.06
2018-02-13T05:09:06.328Z,69.04
2018-02-13T05:10:08.896Z,69.03
2018-02-13T05:11:11.369Z,69.03
2018-02-13T05:12:13.948Z,69.03
2018-02-13T05:13:16.449Z,69.03
2018-02-13T05:14:18.944Z,68.99
2018-02-13T05:15:21.392Z,68.97
2018-02-13T05:16:23.944Z,68.95
2018-02-13T05:17:26.452Z,68.94
2018-02-13T05:18:28.897Z,68.92
2018-02-13T05:19:31.348Z,68.90
2018-02-13T05:20:33.917Z,68.89
2018-02-13T05:21:36.451Z,68.89
2018-02-13T05:22:39.028Z,68.89
2018-02-13T05:23:41.476Z,68.89
2018-02-13T05:24:43.913Z,68.89
2018-02-13T05:25:46.348Z,68.90
2018-02-13T05:26:48.877Z,68.89
2018-02-13T05:27:51.377Z,68.88
2018-02-13T05:28:53.871Z,68.89
2018-02-13T05:29:56.326Z,68.88
2018-02-13T05:30:58.816Z,68.87
2018-02-13T05:32:01.337Z,68.86
2018-02-13T05:33:03.864Z,68.87
2018-02-13T05:34:06.333Z,68.89
2018-02-13T05:35:08.791Z,68.87
2018-02-13T05:36:11.315Z,68.87
2018-02-13T05:37:13.794Z,68.87
2018-02-13T05:38:16.445Z,68.86
2018-02-13T05:39:18.964Z,68.87
2018-02-13T05:40:21.476Z,68.85
2018-02-13T05:41:23.945Z,68.85
2018-02-13T05:42:26.555Z,68.87
2018-02-13T05:43:29.001Z,68.88
2018-02-13T05:44:31.445Z,68.89
2018-02-13T05:45:33.993Z,68.90
2018-02-13T05:46:36.428Z,68.89
2018-02-13T05:47:39.044Z,68.88
2018-02-13T05:48:41.548Z,68.90
2018-02-13T05:49:44.043Z,68.87
2018-02-13T05:50:46.512Z,68.87
2018-02-13T05:51:48.954Z,68.84
2018-02-13T05:52:51.487Z,68.82
2018-02-13T05:53:54.048Z,68.81
2018-02-13T05:54:56.524Z,68.81
2018-02-13T05:55:59.052Z,68.80
2018-02-13T05:57:01.535Z,68.79
2018-02-13T05:58:04.064Z,68.81
2018-02-13T05:59:06.651Z,68.83
2018-02-13T06:00:09.120Z,68.82
2018-02-13T06:01:11.580Z,68.86
2018-02-13T06:02:14.119Z,68.86
2018-02-13T06:03:16.588Z,68.85
2018-02-13T06:04:19.071Z,68.85
2018-02-13T06:05:21.526Z,68.86
2018-02-13T06:06:23.994Z,68.89
2018-02-13T06:07:26.435Z,68.91
2018-02-13T06:08:28.900Z,68.92
2018-02-13T06:09:31.368Z,68.92
2018-02-13T06:10:34.849Z,68.93
2018-02-13T06:11:37.307Z,68.92
2018-02-13T06:12:39.814Z,68.90
2018-02-13T06:13:42.341Z,68.90
2018-02-13T06:14:44.863Z,68.90
2018-02-13T06:15:47.352Z,68.90
2018-02-13T06:16:49.864Z,68.93
2018-02-13T06:17:52.329Z,68.99
2018-02-13T06:18:54.879Z,69.05
2018-02-13T06:19:57.421Z,69.07
2018-02-13T06:21:00.125Z,69.11
2018-02-13T06:22:02.644Z,69.11
2018-02-13T06:23:05.196Z,69.13
2018-02-13T06:24:07.679Z,69.14
2018-02-13T06:25:10.143Z,69.20
2018-02-13T06:26:12.674Z,69.20
2018-02-13T06:27:15.172Z,69.19
2018-02-13T06:28:17.988Z,69.22
2018-02-13T06:29:20.621Z,69.23
2018-02-13T06:30:23.286Z,69.22
2018-02-13T06:31:25.845Z,69.23
2018-02-13T06:32:28.293Z,69.26
2018-02-13T06:33:30.757Z,69.25
2018-02-13T06:34:33.303Z,69.25
2018-02-13T06:35:35.812Z,69.25
2018-02-13T06:36:38.302Z,69.26
2018-02-13T06:37:40.771Z,69.29
2018-02-13T06:38:43.246Z,69.30
2018-02-13T06:39:45.762Z,69.31
2018-02-13T06:40:48.291Z,69.33
2018-02-13T06:41:50.794Z,69.33
2018-02-13T06:42:53.319Z,69.37
2018-02-13T06:43:55.844Z,69.38
2018-02-13T06:44:58.386Z,69.38
2018-02-13T06:46:00.867Z,69.40
2018-02-13T06:47:03.415Z,69.42
2018-02-13T06:48:05.882Z,69.45
2018-02-13T06:49:08.401Z,69.49
2018-02-13T06:50:12.695Z,69.55
2018-02-13T06:51:15.233Z,69.57
2018-02-13T06:52:18.710Z,69.59
2018-02-13T06:53:21.189Z,69.62
2018-02-13T06:54:23.889Z,69.63
2018-02-13T06:55:26.380Z,69.59
2018-02-13T06:56:28.878Z,69.60
2018-02-13T06:57:31.535Z,69.61
2018-02-13T06:58:34.129Z,69.62
2018-02-13T06:59:36.680Z,69.65
2018-02-13T07:00:39.195Z,69.66
2018-02-13T07:01:41.675Z,69.67
2018-02-13T07:02:44.123Z,69.65
2018-02-13T07:03:46.660Z,69.66
2018-02-13T07:04:49.159Z,69.67
2018-02-13T07:05:51.661Z,69.69
2018-02-13T07:06:54.171Z,69.71
2018-02-13T07:07:56.757Z,69.71
2018-02-13T07:08:59.327Z,69.68
2018-02-13T07:10:02.779Z,69.70
2018-02-13T07:11:05.402Z,69.67
2018-02-13T07:12:07.897Z,69.67
2018-02-13T07:13:10.402Z,69.63
2018-02-13T07:14:12.918Z,69.63
2018-02-13T07:15:15.382Z,69.63
2018-02-13T07:16:18.749Z,69.63
2018-02-13T07:17:21.366Z,69.63
2018-02-13T07:18:23.812Z,69.64
2018-02-13T07:19:26.293Z,69.66
2018-02-13T07:20:28.872Z,69.65
2018-02-13T07:21:31.423Z,69.64
2018-02-13T07:22:34.011Z,69.64
2018-02-13T07:23:37.394Z,69.66
2018-02-13T07:24:40.023Z,69.67
2018-02-13T07:25:42.498Z,69.68
2018-02-13T07:26:45.056Z,69.68
2018-02-13T07:27:47.516Z,69.67
2018-02-13T07:28:50.009Z,69.66
2018-02-13T07:29:53.462Z,69.68
2018-02-13T07:30:56.097Z,69.67
2018-02-13T07:31:58.586Z,69.64
2018-02-13T07:33:02.569Z,69.65
2018-02-13T07:34:05.026Z,69.65
2018-02-13T07:35:08.265Z,69.63
2018-02-13T07:36:10.876Z,69.64
2018-02-13T07:37:13.438Z,69.64
2018-02-13T07:38:15.932Z,69.63
2018-02-13T07:39:18.396Z,69.61
2018-02-13T07:40:20.926Z,69.58
2018-02-13T07:41:23.624Z,69.55
2018-02-13T07:42:26.298Z,69.54
2018-02-13T07:43:28.853Z,69.57
2018-02-13T07:44:31.619Z,69.61
2018-02-13T07:45:34.136Z,69.60
2018-02-13T07:46:36.611Z,69.58
2018-02-13T07:47:39.954Z,69.56
2018-02-13T07:48:42.655Z,69.55
2018-02-13T07:49:45.184Z,69.52
2018-02-13T07:50:48.291Z,69.49
2018-02-13T07:51:50.752Z,69.48
2018-02-13T07:52:53.225Z,69.46
2018-02-13T07:53:55.690Z,69.46
2018-02-13T07:54:58.407Z,69.43
2018-02-13T07:56:00.923Z,69.39
2018-02-13T07:57:03.386Z,69.36
2018-02-13T07:58:05.895Z,69.33
2018-02-13T07:59:08.420Z,69.33
2018-02-13T08:00:10.890Z,69.29
2018-02-13T08:01:13.453Z,69.25
2018-02-13T08:02:16.057Z,69.26
2018-02-13T08:03:18.556Z,69.27
2018-02-13T08:04:21.053Z,69.26
2018-02-13T08:05:24.506Z,69.26
2018-02-13T08:06:26.958Z,69.24
2018-02-13T08:07:29.422Z,69.19
2018-02-13T08:08:31.947Z,69.17
2018-02-13T08:09:34.514Z,69.13
2018-02-13T08:10:37.062Z,69.15
2018-02-13T08:11:39.702Z,69.12
2018-02-13T08:12:42.206Z,69.10
2018-02-13T08:13:45.608Z,69.08
2018-02-13T08:14:48.085Z,69.07
2018-02-13T08:15:50.720Z,69.08
2018-02-13T08:16:53.211Z,69.07
2018-02-13T08:17:55.951Z,69.06
2018-02-13T08:18:58.407Z,69.09
2018-02-13T08:20:00.880Z,69.04
2018-02-13T08:21:03.547Z,69.01
2018-02-13T08:22:06.100Z,68.94
2018-02-13T08:23:08.738Z,68.89
2018-02-13T08:24:11.275Z,68.85
2018-02-13T08:25:13.769Z,68.86
2018-02-13T08:26:16.356Z,68.87
2018-02-13T08:27:18.844Z,68.83
2018-02-13T08:28:21.384Z,68.76
2018-02-13T08:29:24.260Z,68.69
2018-02-13T08:30:26.764Z,68.69
2018-02-13T08:31:29.226Z,68.68
2018-02-13T08:32:31.877Z,68.64
2018-02-13T08:33:34.443Z,68.60
2018-02-13T08:34:37.014Z,68.53
2018-02-13T08:35:39.482Z,68.52
2018-02-13T08:36:42.013Z,68.54
2018-02-13T08:37:44.612Z,68.55
2018-02-13T08:38:47.093Z,68.48
2018-02-13T08:39:49.685Z,68.41
2018-02-13T08:40:52.425Z,68.41
2018-02-13T08:41:54.887Z,68.39
2018-02-13T08:42:57.725Z,68.35
2018-02-13T08:44:00.194Z,68.36
2018-02-13T08:45:02.937Z,68.32
2018-02-13T08:46:05.451Z,68.28
2018-02-13T08:47:07.919Z,68.22
2018-02-13T08:48:10.375Z,68.18
2018-02-13T08:49:12.858Z,68.15
2018-02-13T08:50:15.382Z,68.13
2018-02-13T08:51:17.921Z,68.12
2018-02-13T08:52:20.451Z,68.11
2018-02-13T08:53:22.934Z,68.10
2018-02-13T08:54:25.540Z,68.05
2018-02-13T08:55:28.307Z,68.04
2018-02-13T08:56:30.777Z,68.06
2018-02-13T08:57:33.622Z,68.05
2018-02-13T08:58:36.465Z,68.03
2018-02-13T08:59:39.950Z,68.00
2018-02-13T09:00:42.529Z,67.98
2018-02-13T09:01:44.985Z,67.95
2018-02-13T09:02:47.451Z,67.91
2018-02-13T09:03:49.983Z,67.83
2018-02-13T09:04:52.446Z,67.80
2018-02-13T09:05:55.049Z,67.82
2018-02-13T09:06:57.553Z,67.83
2018-02-13T09:08:00.078Z,67.76
2018-02-13T09:09:02.682Z,67.72
2018-02-13T09:10:05.152Z,67.71
2018-02-13T09:11:07.729Z,67.68
2018-02-13T09:12:10.325Z,67.65
2018-02-13T09:13:12.768Z,67.64
2018-02-13T09:14:15.265Z,67.67
2018-02-13T09:15:17.756Z,67.66
2018-02-13T09:16:20.516Z,67.62
2018-02-13T09:17:23.030Z,67.64
2018-02-13T09:18:25.521Z,67.62
2018-02-13T09:19:28.016Z,67.63
2018-02-13T09:20:30.603Z,67.63
2018-02-13T09:21:33.281Z,67.64
2018-02-13T09:22:35.775Z,67.64
2018-02-13T09:23:38.901Z,67.59
2018-02-13T09:24:41.393Z,67.60
2018-02-13T09:25:43.869Z,67.59
2018-02-13T09:26:46.337Z,67.56
2018-02-13T09:27:48.808Z,67.54
2018-02-13T09:28:51.271Z,67.35
2018-02-13T09:29:53.717Z,67.20
2018-02-13T09:30:56.224Z,67.03
2018-02-13T09:31:58.707Z,66.94
2018-02-13T09:33:01.451Z,66.92
2018-02-13T09:34:03.967Z,66.88
2018-02-13T09:35:06.520Z,66.84
2018-02-13T09:36:09.031Z,66.76
2018-02-13T09:37:11.527Z,66.72
2018-02-13T09:38:13.989Z,66.70
2018-02-13T09:39:16.440Z,66.62
2018-02-13T09:40:18.935Z,66.53
2018-02-13T09:41:21.536Z,66.52
2018-02-13T09:42:24.112Z,66.49
2018-02-13T09:43:26.656Z,66.48
2018-02-13T09:44:29.110Z,66.50
2018-02-13T09:45:31.709Z,66.47
2018-02-13T09:46:34.176Z,66.42
2018-02-13T09:47:36.709Z,66.37
2018-02-13T09:48:39.180Z,66.33
2018-02-13T09:49:41.661Z,66.30
2018-02-13T09:50:44.111Z,66.28
2018-02-13T09:51:46.709Z,66.27
2018-02-13T09:52:49.212Z,66.28
2018-02-13T09:53:52.065Z,66.21
2018-02-13T09:54:54.684Z,66.17
2018-02-13T09:55:57.240Z,66.17
2018-02-13T09:57:00.258Z,66.16
2018-02-13T09:58:02.794Z,66.20
2018-02-13T09:59:05.248Z,66.13
2018-02-13T10:00:07.713Z,66.04
2018-02-13T10:01:10.941Z,65.99
2018-02-13T10:02:13.468Z,65.97
2018-02-13T10:03:16.043Z,65.92
2018-02-13T10:04:18.572Z,65.84
2018-02-13T10:05:21.069Z,65.77
2018-02-13T10:06:23.527Z,65.74
2018-02-13T10:07:26.021Z,65.75
2018-02-13T10:08:30.945Z,65.73
2018-02-13T10:09:33.512Z,65.70
2018-02-13T10:10:35.958Z,65.68
2018-02-13T10:11:38.430Z,65.56
2018-02-13T10:12:41.658Z,65.48
2018-02-13T10:13:44.237Z,65.42
2018-02-13T10:14:46.710Z,65.35
2018-02-13T10:15:49.759Z,65.30
2018-02-13T10:16:52.327Z,65.32
2018-02-13T10:17:54.794Z,65.31
2018-02-13T10:18:57.288Z,65.25
2018-02-13T10:19:59.780Z,65.28
2018-02-13T10:21:02.305Z,65.31
2018-02-13T10:22:04.842Z,65.24
2018-02-13T10:23:07.332Z,65.11
2018-02-13T10:24:09.815Z,65.03
2018-02-13T10:25:12.323Z,65.01
2018-02-13T10:26:14.779Z,64.97
2018-02-13T10:27:17.217Z,64.97
2018-02-13T10:28:19.746Z,64.95
2018-02-13T10:29:23.001Z,64.95
2018-02-13T10:30:25.741Z,64.92
2018-02-13T10:31:28.239Z,64.89
2018-02-13T10:32:30.736Z,64.81
2018-02-13T10:33:33.210Z,64.79
2018-02-13T10:34:35.699Z,64.79
2018-02-13T10:35:38.149Z,64.73
2018-02-13T10:36:40.620Z,64.68
2018-02-13T10:37:45.927Z,64.62
2018-02-13T10:38:48.377Z,64.52
2018-02-13T10:39:51.271Z,64.42
2018-02-13T10:40:53.841Z,64.32
2018-02-13T10:41:56.318Z,64.30
2018-02-13T10:42:58.763Z,64.25
2018-02-13T10:44:02.299Z,64.20
2018-02-13T10:45:05.694Z,64.15
2018-02-13T10:46:08.251Z,64.14
2018-02-13T10:47:10.703Z,64.03
2018-02-13T10:48:13.168Z,63.98
2018-02-13T10:49:15.636Z,63.84
2018-02-13T10:50:18.189Z,63.68
2018-02-13T10:51:20.631Z,63.58
2018-02-13T10:52:23.133Z,63.49
2018-02-13T10:53:26.428Z,63.42
2018-02-13T10:54:29.186Z,63.34
2018-02-13T10:55:31.801Z,63.32
2018-02-13T10:56:34.271Z,63.36
2018-02-13T10:57:36.726Z,63.36
2018-02-13T10:58:39.203Z,63.33
2018-02-13T10:59:41.710Z,63.35
2018-02-13T11:00:49.833Z,63.34
2018-02-13T11:01:52.352Z,63.31
2018-02-13T11:02:54.825Z,63.17
2018-02-13T11:03:57.268Z,63.09
2018-02-13T11:04:59.823Z,62.97
2018-02-13T11:06:02.315Z,62.92
2018-02-13T11:07:04.816Z,62.78
2018-02-13T11:08:07.267Z,62.64
2018-02-13T11:09:09.894Z,62.43
2018-02-13T11:10:13.314Z,62.38
2018-02-13T11:11:15.783Z,62.34
2018-02-13T11:12:18.246Z,62.33
2018-02-13T11:13:20.802Z,62.34
2018-02-13T11:14:23.288Z,62.29
2018-02-13T11:15:25.771Z,62.22
2018-02-13T11:16:28.235Z,62.13
2018-02-13T11:17:30.703Z,61.95
2018-02-13T11:18:34.382Z,61.90
2018-02-13T11:19:36.836Z,61.91
2018-02-13T11:20:39.710Z,61.80
2018-02-13T11:21:42.185Z,61.78
2018-02-13T11:22:44.645Z,61.72
2018-02-13T11:23:47.096Z,61.71
2018-02-13T11:24:49.551Z,61.61
2018-02-13T11:25:51.986Z,61.51
2018-02-13T11:26:54.479Z,61.15
2018-02-13T11:27:57.085Z,60.87
2018-02-13T11:28:59.620Z,60.63
2018-02-13T11:30:02.081Z,60.46
2018-02-13T11:31:04.542Z,60.42
2018-02-13T11:32:07.405Z,60.39
2018-02-13T11:33:09.899Z,60.24
2018-02-13T11:34:12.337Z,60.10
2018-02-13T11:35:14.937Z,59.96
2018-02-13T11:36:17.482Z,59.81
2018-02-13T11:37:19.987Z,59.54
2018-02-13T11:38:22.496Z,59.53
2018-02-13T11:39:24.975Z,59.53
2018-02-13T11:40:27.470Z,59.54
2018-02-13T11:41:29.939Z,59.52
2018-02-13T11:42:32.401Z,59.44
2018-02-13T11:43:34.867Z,59.39
2018-02-13T11:44:37.400Z,59.14
2018-02-13T11:45:39.909Z,58.93
2018-02-13T11:46:42.731Z,58.81
2018-02-13T11:47:45.250Z,58.62
2018-02-13T11:48:48.441Z,58.62
2018-02-13T11:49:50.899Z,58.25
2018-02-13T11:50:53.469Z,58.18
2018-02-13T11:51:56.022Z,57.97
2018-02-13T11:52:59.373Z,57.89
2018-02-13T11:54:01.838Z,57.82
2018-02-13T11:55:04.707Z,57.55
2018-02-13T11:56:07.197Z,57.47
2018-02-13T11:57:09.705Z,57.22
2018-02-13T11:58:12.244Z,57.20
2018-02-13T11:59:14.692Z,57.16
2018-02-13T12:00:17.140Z,57.17
2018-02-13T12:01:19.678Z,57.22
2018-02-13T12:02:22.151Z,57.13
2018-02-13T12:03:24.644Z,57.00
2018-02-13T12:04:27.141Z,56.98
2018-02-13T12:05:30.145Z,56.77
2018-02-13T12:06:32.704Z,56.60
2018-02-13T12:07:35.270Z,56.42
2018-02-13T12:08:37.776Z,56.36
2018-02-13T12:09:40.245Z,56.28
2018-02-13T12:10:42.735Z,56.25
2018-02-13T12:11:45.202Z,56.21
2018-02-13T12:12:47.642Z,56.17
2018-02-13T12:13:50.164Z,56.17
2018-02-13T12:14:52.739Z,56.15
2018-02-13T12:15:55.179Z,56.13
2018-02-13T12:16:58.268Z,55.95
2018-02-13T12:18:01.627Z,55.74
2018-02-13T12:19:04.178Z,55.50
2018-02-13T12:20:06.735Z,55.40
2018-02-13T12:21:09.384Z,55.38
2018-02-13T12:22:12.041Z,55.37
2018-02-13T12:23:14.508Z,55.36
2018-02-13T12:24:17.929Z,55.27
2018-02-13T12:25:32.200Z,55.27
2018-02-13T12:26:34.654Z,55.27
2018-02-13T12:27:38.995Z,54.97
2018-02-13T12:28:41.467Z,54.95
2018-02-13T12:29:43.922Z,54.84
2018-02-13T12:30:46.381Z,54.74
2018-02-13T12:31:48.900Z,54.77
2018-02-13T12:32:51.349Z,54.86
2018-02-13T12:33:53.853Z,54.74
2018-02-13T12:34:56.355Z,54.75
2018-02-13T12:35:58.824Z,54.65
2018-02-13T12:37:01.281Z,54.62
2018-02-13T12:38:03.726Z,54.54
2018-02-13T12:39:06.853Z,54.58
2018-02-13T12:40:09.324Z,54.42
2018-02-13T12:41:11.998Z,54.33
2018-02-13T12:42:14.508Z,54.23
2018-02-13T12:43:16.942Z,54.16
2018-02-13T12:44:19.431Z,54.12
2018-02-13T12:45:22.852Z,54.16
2018-02-13T12:46:25.364Z,54.16
2018-02-13T12:47:27.848Z,54.23
2018-02-13T12:48:30.305Z,54.21
2018-02-13T12:49:32.858Z,54.04
2018-02-13T12:50:35.349Z,53.95
2018-02-13T12:51:37.795Z,53.99
2018-02-13T12:52:41.190Z,53.88
2018-02-13T12:53:44.262Z,53.85
2018-02-13T12:54:46.730Z,53.80
2018-02-13T12:55:49.274Z,53.64
2018-02-13T12:56:51.727Z,53.64
2018-02-13T12:57:54.321Z,53.66
2018-02-13T12:58:56.824Z,53.49
2018-02-13T12:59:59.294Z,53.28
2018-02-13T13:01:01.803Z,53.12
2018-02-13T13:02:04.292Z,53.03
2018-02-13T13:03:06.854Z,53.01
2018-02-13T13:04:09.972Z,52.90
2018-02-13T13:05:12.485Z,52.84
2018-02-13T13:06:14.984Z,52.85
2018-02-13T13:07:17.456Z,52.79
2018-02-13T13:08:19.899Z,52.71
2018-02-13T13:09:22.380Z,52.56
2018-02-13T13:10:24.844Z,52.54
2018-02-13T13:11:27.381Z,52.60
2018-02-13T13:12:30.018Z,52.62
2018-02-13T13:13:32.576Z,52.51
2018-02-13T13:14:35.083Z,52.48
2018-02-13T13:15:37.627Z,52.53
2018-02-13T13:16:40.156Z,52.32
2018-02-13T13:17:42.608Z,52.24
2018-02-13T13:18:45.073Z,52.15
2018-02-13T13:19:47.564Z,51.89
2018-02-13T13:20:50.041Z,51.91
2018-02-13T13:21:52.497Z,51.74
2018-02-13T13:22:54.952Z,51.39
2018-02-13T13:23:57.456Z,51.23
2018-02-13T13:25:00.016Z,51.20
2018-02-13T13:26:02.490Z,51.06